createdAt,value
2023-04-08T00:00:54.533Z,17.20
2023-04-08T00:03:21.451Z,18.52
2023-04-08T00:05:47.950Z,18.88
2023-04-08T00:08:14.382Z,18.83
2023-04-08T00:10:41.033Z,20.20
2023-04-08T00:13:07.626Z,18.55
2023-04-08T00:15:34.158Z,18.75
2023-04-08T00:18:01.127Z,16.55
2023-04-08T00:20:27.840Z,16.70
2023-04-08T00:22:54.319Z,18.08
2023-04-08T00:25:21.906Z,17.02
2023-04-08T00:27:50.718Z,19.40
2023-04-08T00:30:17.240Z,46.10
2023-04-08T00:32:43.799Z,33.55
2023-04-08T00:35:12.660Z,18.27
2023-04-08T00:37:39.129Z,19.92
2023-04-08T00:40:06.274Z,17.70
2023-04-08T00:42:32.704Z,18.45
2023-04-08T00:44:59.196Z,16.50
2023-04-08T00:47:25.913Z,16.73
2023-04-08T00:49:52.340Z,15.25
2023-04-08T00:52:18.980Z,15.65
2023-04-08T00:54:45.556Z,18.15
2023-04-08T00:57:12.045Z,18.33
2023-04-08T00:59:38.739Z,18.25
2023-04-08T01:02:28.850Z,18.17
2023-04-08T01:05:13.330Z,17.90
2023-04-08T01:07:50.450Z,20.05
2023-04-08T01:10:16.775Z,17.80
2023-04-08T01:12:56.230Z,18.25
2023-04-08T01:15:26.192Z,14.30
2023-04-08T01:17:57.393Z,18.05
2023-04-08T01:20:25.860Z,26.77
2023-04-08T01:22:55.140Z,28.10
2023-04-08T01:25:26.244Z,41.55
2023-04-08T01:27:59.674Z,20.95
2023-04-08T01:30:28.513Z,17.90
2023-04-08T01:32:55.939Z,17.33
2023-04-08T01:35:25.676Z,16.85
2023-04-08T01:37:53.973Z,18.40
2023-04-08T01:40:20.597Z,18.60
2023-04-08T01:42:51.861Z,20.55
2023-04-08T01:45:18.774Z,19.73
2023-04-08T01:47:49.732Z,19.20
2023-04-08T01:50:17.300Z,19.00
2023-04-08T01:52:45.796Z,82.43
2023-04-08T01:55:12.250Z,46.75
2023-04-08T01:57:40.889Z,26.60
2023-04-08T02:00:13.121Z,22.88
2023-04-08T02:02:42.746Z,20.65
2023-04-08T02:05:09.512Z,20.63
2023-04-08T02:07:36.597Z,19.25
2023-04-08T02:10:03.861Z,20.90
2023-04-08T02:12:30.768Z,20.48
2023-04-08T02:14:57.793Z,19.98
2023-04-08T02:17:41.739Z,21.27
2023-04-08T02:20:12.325Z,19.80
2023-04-08T02:22:44.820Z,22.05
2023-04-08T02:25:16.540Z,22.10
2023-04-08T02:27:45.646Z,21.70
2023-04-08T02:30:13.376Z,22.20
2023-04-08T02:32:40.334Z,22.90
2023-04-08T02:35:07.977Z,20.10
2023-04-08T02:37:34.458Z,22.15
2023-04-08T02:40:01.054Z,40.35
2023-04-08T02:42:27.525Z,35.25
2023-04-08T02:44:55.566Z,23.73
2023-04-08T02:47:22.028Z,24.55
2023-04-08T02:49:48.509Z,21.58
2023-04-08T02:52:14.993Z,20.55
2023-04-08T02:54:41.462Z,21.50
2023-04-08T02:57:07.822Z,21.98
2023-04-08T02:59:34.319Z,20.73
2023-04-08T03:02:00.990Z,23.35
2023-04-08T03:04:27.419Z,17.83
2023-04-08T03:06:53.872Z,23.25
2023-04-08T03:09:20.538Z,20.85
2023-04-08T03:11:52.603Z,23.42
2023-04-08T03:14:19.066Z,25.40
2023-04-08T03:16:45.492Z,23.77
2023-04-08T03:19:11.861Z,24.38
2023-04-08T03:21:38.293Z,22.45
2023-04-08T03:24:04.907Z,23.50
2023-04-08T03:26:31.261Z,22.80
2023-04-08T03:28:57.784Z,24.25
2023-04-08T03:31:26.175Z,23.75
2023-04-08T03:33:52.614Z,23.80
2023-04-08T03:36:19.024Z,24.92
2023-04-08T03:38:45.862Z,24.40
2023-04-08T03:41:12.314Z,24.38
2023-04-08T03:43:38.787Z,24.67
2023-04-08T03:46:05.290Z,19.63
2023-04-08T03:48:32.180Z,24.85
2023-04-08T03:50:58.680Z,21.90
2023-04-08T03:53:25.078Z,25.52
2023-04-08T03:55:51.518Z,25.02
2023-04-08T03:58:17.908Z,21.98
2023-04-08T04:00:44.381Z,20.73
2023-04-08T04:03:14.560Z,14.00
2023-04-08T04:05:41.118Z,14.15
2023-04-08T04:08:09.300Z,14.23
2023-04-08T04:10:35.963Z,14.68
2023-04-08T04:13:02.413Z,14.75
2023-04-08T04:15:28.877Z,14.82
2023-04-08T04:17:55.298Z,14.50
2023-04-08T04:20:21.993Z,14.73
2023-04-08T04:22:48.381Z,15.70
2023-04-08T04:25:14.793Z,14.93
2023-04-08T04:27:41.152Z,14.43
2023-04-08T04:30:09.604Z,14.00
2023-04-08T04:32:36.183Z,14.50
2023-04-08T04:35:02.735Z,14.43
2023-04-08T04:37:29.132Z,13.73
2023-04-08T04:39:55.508Z,13.85
2023-04-08T04:42:21.946Z,13.27
2023-04-08T04:44:48.348Z,13.13
2023-04-08T04:47:16.058Z,13.57
2023-04-08T04:49:42.905Z,13.95
2023-04-08T04:52:09.372Z,14.77
2023-04-08T04:54:36.270Z,14.05
2023-04-08T04:57:02.678Z,14.25
2023-04-08T04:59:29.203Z,13.13
2023-04-08T05:01:57.712Z,13.43
2023-04-08T05:04:25.859Z,15.30
2023-04-08T05:06:52.433Z,13.38
2023-04-08T05:09:18.918Z,13.60
2023-04-08T05:11:45.456Z,14.80
2023-04-08T05:14:12.440Z,12.45
2023-04-08T05:16:39.194Z,12.70
2023-04-08T05:19:05.684Z,13.02
2023-04-08T05:21:32.645Z,12.48
2023-04-08T05:23:59.186Z,11.07
2023-04-08T05:26:26.285Z,12.00
2023-04-08T05:28:52.829Z,11.38
2023-04-08T05:31:20.530Z,10.15
2023-04-08T05:33:47.418Z,11.88
2023-04-08T05:36:14.196Z,10.60
2023-04-08T05:38:42.614Z,10.93
2023-04-08T05:41:09.059Z,10.80
2023-04-08T05:43:36.537Z,10.35
2023-04-08T05:46:09.938Z,10.80
2023-04-08T05:48:36.621Z,10.75
2023-04-08T05:51:03.503Z,9.77
2023-04-08T05:53:29.916Z,10.93
2023-04-08T05:55:56.271Z,10.43
2023-04-08T05:58:22.705Z,11.23
2023-04-08T06:00:49.085Z,11.38
2023-04-08T06:03:17.449Z,9.68
2023-04-08T06:05:45.490Z,10.98
2023-04-08T06:08:11.923Z,11.15
2023-04-08T06:10:41.104Z,10.95
2023-04-08T06:13:07.738Z,11.25
2023-04-08T06:15:34.179Z,10.93
2023-04-08T06:18:00.925Z,11.18
2023-04-08T06:20:28.315Z,10.65
2023-04-08T06:22:54.819Z,11.05
2023-04-08T06:25:21.475Z,9.70
2023-04-08T06:27:48.470Z,10.65
2023-04-08T06:30:14.941Z,9.60
2023-04-08T06:32:41.473Z,10.73
2023-04-08T06:35:08.483Z,10.13
2023-04-08T06:37:38.387Z,9.88
2023-04-08T06:40:06.259Z,9.80
2023-04-08T06:42:33.171Z,9.10
2023-04-08T06:44:59.701Z,9.25
2023-04-08T06:47:26.153Z,9.57
2023-04-08T06:49:52.961Z,8.90
2023-04-08T06:52:19.472Z,7.25
2023-04-08T06:54:46.403Z,8.35
2023-04-08T06:57:12.897Z,7.93
2023-04-08T06:59:39.529Z,8.43
2023-04-08T07:02:05.964Z,8.65
2023-04-08T07:04:32.400Z,8.57
2023-04-08T07:06:58.812Z,7.40
2023-04-08T07:09:25.224Z,8.25
2023-04-08T07:11:53.820Z,7.72
2023-04-08T07:14:20.538Z,7.70
2023-04-08T07:16:46.958Z,8.13
2023-04-08T07:19:14.509Z,6.88
2023-04-08T07:21:41.514Z,6.63
2023-04-08T07:24:07.947Z,7.63
2023-04-08T07:26:34.401Z,7.35
2023-04-08T07:29:00.839Z,7.57
2023-04-08T07:31:27.274Z,7.25
2023-04-08T07:33:53.709Z,7.15
2023-04-08T07:36:21.050Z,7.50
2023-04-08T07:38:47.711Z,6.85
2023-04-08T07:41:14.254Z,6.65
2023-04-08T07:43:40.716Z,7.55
2023-04-08T07:46:07.676Z,6.97
2023-04-08T07:48:34.886Z,6.85
2023-04-08T07:51:11.040Z,6.70
2023-04-08T07:53:39.559Z,6.80
2023-04-08T07:56:13.592Z,6.45
2023-04-08T07:58:40.917Z,7.82
2023-04-08T08:01:22.455Z,6.95
2023-04-08T08:03:50.999Z,6.88
2023-04-08T08:06:18.187Z,7.47
2023-04-08T08:08:44.728Z,6.63
2023-04-08T08:11:11.230Z,8.13
2023-04-08T08:13:37.736Z,7.07
2023-04-08T08:16:04.314Z,7.28
2023-04-08T08:18:30.819Z,6.85
2023-04-08T08:20:57.309Z,7.50
2023-04-08T08:23:23.763Z,7.63
2023-04-08T08:25:50.454Z,7.22
2023-04-08T08:28:16.881Z,6.95
2023-04-08T08:30:43.274Z,7.43
2023-04-08T08:33:09.641Z,6.57
2023-04-08T08:35:36.129Z,7.40
2023-04-08T08:38:02.654Z,7.38
2023-04-08T08:40:29.056Z,6.75
2023-04-08T08:42:59.190Z,7.82
2023-04-08T08:45:25.867Z,6.63
2023-04-08T08:47:52.948Z,7.05
2023-04-08T08:50:19.541Z,7.63
2023-04-08T08:52:53.189Z,7.10
2023-04-08T08:55:39.375Z,6.90
2023-04-08T08:58:07.707Z,6.15
2023-04-08T09:00:35.807Z,6.90
2023-04-08T09:03:22.987Z,7.68
2023-04-08T09:05:52.797Z,6.78
2023-04-08T09:08:36.793Z,7.03
2023-04-08T09:11:23.276Z,8.15
2023-04-08T09:13:49.950Z,6.18
2023-04-08T09:16:18.622Z,7.20
2023-04-08T09:18:47.248Z,7.72
2023-04-08T09:21:14.972Z,7.20
2023-04-08T09:23:46.484Z,8.05
2023-04-08T09:26:16.838Z,7.32
2023-04-08T09:28:44.773Z,7.85
2023-04-08T09:31:22.808Z,8.15
2023-04-08T09:33:51.030Z,7.68
2023-04-08T09:36:18.162Z,7.40
2023-04-08T09:38:44.982Z,7.90
2023-04-08T09:41:16.809Z,8.82
2023-04-08T09:43:50.264Z,7.88
2023-04-08T09:46:19.047Z,8.15
2023-04-08T09:48:52.200Z,8.10
2023-04-08T09:51:22.265Z,8.65
2023-04-08T09:53:55.903Z,7.78
2023-04-08T09:56:22.750Z,7.15
2023-04-08T09:58:56.076Z,8.85
2023-04-08T10:01:29.014Z,8.85
2023-04-08T10:03:57.371Z,8.15
2023-04-08T10:06:29.661Z,8.07
2023-04-08T10:08:56.789Z,8.20
2023-04-08T10:11:23.568Z,8.23
2023-04-08T10:13:50.667Z,8.45
2023-04-08T10:16:22.377Z,8.50
2023-04-08T10:21:37.659Z,7.88
2023-04-08T10:24:08.594Z,20.02
2023-04-08T10:26:41.436Z,34.90
2023-04-08T10:29:21.156Z,9.20
2023-04-08T10:31:51.490Z,7.75
2023-04-08T10:34:21.324Z,87.72
2023-04-08T10:36:48.953Z,8.80
2023-04-08T10:39:16.506Z,6.63
2023-04-08T10:41:47.551Z,8.07
2023-04-08T10:44:21.807Z,7.70
2023-04-08T10:46:49.587Z,7.80
2023-04-08T10:49:17.422Z,7.97
2023-04-08T10:51:44.919Z,8.40
2023-04-08T10:54:16.744Z,7.00
2023-04-08T10:56:47.819Z,6.80
2023-04-08T10:59:16.956Z,7.30
2023-04-08T11:01:45.263Z,6.97
2023-04-08T11:04:17.053Z,8.65
2023-04-08T11:06:44.617Z,7.13
2023-04-08T11:09:11.496Z,7.13
2023-04-08T11:11:42.142Z,7.50
2023-04-08T11:14:08.732Z,7.30
2023-04-08T11:16:37.000Z,7.93
2023-04-08T11:19:05.957Z,7.63
2023-04-08T11:21:35.164Z,7.43
2023-04-08T11:24:01.560Z,9.32
2023-04-08T11:26:28.394Z,7.80
2023-04-08T11:28:57.577Z,7.53
2023-04-08T11:31:24.851Z,20.42
2023-04-08T11:33:54.084Z,10.50
2023-04-08T11:36:21.812Z,7.03
2023-04-08T11:38:48.276Z,7.82
2023-04-08T11:41:16.104Z,7.10
2023-04-08T11:43:56.380Z,7.45
2023-04-08T11:46:23.635Z,7.53
2023-04-08T11:49:04.820Z,7.53
2023-04-08T11:51:31.912Z,7.88
2023-04-08T11:53:58.464Z,7.05
2023-04-08T11:56:25.410Z,8.90
2023-04-08T11:58:52.887Z,8.50
2023-04-08T12:01:19.860Z,9.13
2023-04-08T12:04:04.742Z,8.75
2023-04-08T12:06:31.687Z,7.97
2023-04-08T12:08:58.691Z,8.60
2023-04-08T12:11:25.206Z,8.93
2023-04-08T12:13:52.802Z,9.25
2023-04-08T12:16:20.060Z,7.22
2023-04-08T12:18:47.062Z,8.85
2023-04-08T12:21:13.482Z,7.97
2023-04-08T12:23:39.971Z,8.95
2023-04-08T12:26:07.391Z,8.35
2023-04-08T12:28:35.188Z,8.50
2023-04-08T12:31:04.844Z,8.25
2023-04-08T12:33:31.427Z,7.80
2023-04-08T12:36:04.152Z,7.40
2023-04-08T12:38:30.632Z,7.45
2023-04-08T12:41:06.598Z,8.05
2023-04-08T12:43:36.837Z,7.03
2023-04-08T12:46:03.327Z,8.43
2023-04-08T12:48:30.057Z,8.38
2023-04-08T12:50:56.656Z,9.00
2023-04-08T12:53:23.152Z,9.60
2023-04-08T12:55:51.596Z,8.25
2023-04-08T12:58:17.975Z,9.68
2023-04-08T13:00:46.711Z,8.85
2023-04-08T13:03:14.022Z,8.48
2023-04-08T13:05:43.622Z,7.40
2023-04-08T13:08:12.369Z,8.52
2023-04-08T13:10:39.143Z,8.40
2023-04-08T13:13:05.786Z,9.20
2023-04-08T13:15:32.362Z,11.10
2023-04-08T13:17:59.556Z,10.00
2023-04-08T13:20:26.756Z,8.77
2023-04-08T13:22:53.465Z,8.82
2023-04-08T13:25:19.909Z,8.63
2023-04-08T13:27:46.416Z,8.80
2023-04-08T13:30:13.203Z,8.63
2023-04-08T13:32:39.773Z,9.30
2023-04-08T13:35:06.516Z,9.95
2023-04-08T13:37:33.067Z,10.15
2023-04-08T13:39:59.506Z,8.80
2023-04-08T13:42:26.264Z,8.55
2023-04-08T13:44:52.763Z,8.68
2023-04-08T13:47:19.661Z,7.72
2023-04-08T13:49:46.183Z,9.88
2023-04-08T13:52:12.670Z,10.38
2023-04-08T13:54:39.061Z,8.93
2023-04-08T13:57:05.616Z,8.43
2023-04-08T13:59:32.275Z,8.48
2023-04-08T14:01:58.947Z,8.95
2023-04-08T14:04:25.458Z,9.02
2023-04-08T14:06:53.212Z,7.75
2023-04-08T14:09:20.877Z,9.85
2023-04-08T14:11:47.357Z,10.88
2023-04-08T14:14:13.998Z,10.52
2023-04-08T14:16:41.704Z,11.02
2023-04-08T14:19:08.391Z,9.95
2023-04-08T14:21:34.893Z,10.70
2023-04-08T14:24:02.689Z,11.77
2023-04-08T14:26:29.426Z,12.60
2023-04-08T14:28:56.039Z,12.07
2023-04-08T14:31:22.612Z,13.65
2023-04-08T14:33:49.161Z,12.00
2023-04-08T14:36:18.235Z,12.43
2023-04-08T14:38:44.761Z,13.35
2023-04-08T14:41:11.286Z,11.95
2023-04-08T14:43:37.726Z,14.18
2023-04-08T14:46:04.245Z,11.98
2023-04-08T14:48:30.948Z,10.68
2023-04-08T14:50:57.493Z,11.98
2023-04-08T14:53:23.979Z,13.02
2023-04-08T14:55:51.084Z,12.77
2023-04-08T14:58:17.881Z,11.93
2023-04-08T15:00:47.764Z,12.93
2023-04-08T15:03:15.436Z,12.65
2023-04-08T15:05:42.897Z,12.48
2023-04-08T15:08:09.565Z,11.32
2023-04-08T15:10:36.107Z,11.32
2023-04-08T15:13:02.832Z,11.48
2023-04-08T15:15:29.381Z,11.43
2023-04-08T15:17:58.919Z,11.68
2023-04-08T15:20:25.702Z,11.95
2023-04-08T15:22:52.222Z,10.95
2023-04-08T15:25:18.800Z,9.50
2023-04-08T15:27:45.194Z,8.15
2023-04-08T15:30:12.560Z,9.68
2023-04-08T15:32:39.124Z,9.57
2023-04-08T15:35:06.664Z,8.55
2023-04-08T15:37:33.206Z,10.13
2023-04-08T15:39:59.696Z,9.00
2023-04-08T15:42:26.097Z,10.10
2023-04-08T15:44:52.538Z,12.15
2023-04-08T15:47:19.014Z,11.75
2023-04-08T15:49:45.537Z,11.98
2023-04-08T15:52:12.283Z,12.60
2023-04-08T15:54:38.741Z,11.23
2023-04-08T15:57:05.329Z,12.05
2023-04-08T15:59:32.217Z,11.68
2023-04-08T16:01:58.792Z,12.13
2023-04-08T16:04:25.310Z,13.55
2023-04-08T16:06:51.849Z,13.63
2023-04-08T16:09:22.451Z,14.52
2023-04-08T16:11:48.940Z,14.55
2023-04-08T16:14:15.755Z,14.80
2023-04-08T16:16:43.075Z,14.30
2023-04-08T16:19:09.566Z,13.75
2023-04-08T16:21:36.130Z,13.05
2023-04-08T16:24:02.836Z,11.82
2023-04-08T16:26:29.653Z,11.82
2023-04-08T16:28:56.174Z,12.48
2023-04-08T16:31:22.819Z,10.57
2023-04-08T16:33:49.680Z,13.18
2023-04-08T16:36:16.487Z,11.90
2023-04-08T16:38:42.950Z,12.80
2023-04-08T16:41:10.074Z,11.05
2023-04-08T16:43:37.824Z,11.43
2023-04-08T16:46:17.541Z,10.73
2023-04-08T16:48:44.925Z,11.65
2023-04-08T16:51:11.633Z,11.95
2023-04-08T16:53:38.245Z,13.35
2023-04-08T16:56:05.207Z,11.88
2023-04-08T16:58:31.696Z,12.38
2023-04-08T17:00:58.090Z,11.93
2023-04-08T17:03:25.800Z,11.68
2023-04-08T17:05:52.408Z,11.57
2023-04-08T17:08:18.967Z,12.80
2023-04-08T17:10:45.473Z,13.38
2023-04-08T17:13:14.236Z,11.95
2023-04-08T17:15:41.287Z,13.02
2023-04-08T17:18:07.683Z,11.05
2023-04-08T17:20:34.140Z,12.73
2023-04-08T17:23:00.568Z,12.93
2023-04-08T17:25:26.996Z,11.80
2023-04-08T17:27:53.475Z,13.50
2023-04-08T17:30:20.080Z,11.80
2023-04-08T17:32:46.526Z,13.73
2023-04-08T17:35:13.262Z,14.13
2023-04-08T17:37:39.753Z,13.98
2023-04-08T17:40:07.602Z,12.48
2023-04-08T17:42:34.069Z,14.65
2023-04-08T17:45:02.356Z,12.25
2023-04-08T17:47:28.887Z,14.88
2023-04-08T17:49:56.091Z,13.45
2023-04-08T17:52:22.788Z,15.55
2023-04-08T17:54:49.244Z,14.38
2023-04-08T17:57:15.649Z,13.88
2023-04-08T17:59:42.076Z,14.75
2023-04-08T18:02:08.727Z,13.75
2023-04-08T18:04:35.188Z,14.27
2023-04-08T18:07:05.184Z,12.90
2023-04-08T18:09:31.738Z,13.60
2023-04-08T18:11:58.238Z,14.95
2023-04-08T18:14:24.678Z,14.23
2023-04-08T18:16:51.139Z,16.27
2023-04-08T18:19:17.651Z,14.63
2023-04-08T18:21:44.181Z,14.48
2023-04-08T18:24:10.749Z,14.40
2023-04-08T18:26:37.205Z,14.15
2023-04-08T18:29:03.846Z,14.63
2023-04-08T18:31:33.240Z,14.40
2023-04-08T18:33:59.621Z,13.98
2023-04-08T18:36:26.620Z,14.20
2023-04-08T18:38:53.052Z,15.50
2023-04-08T18:41:23.226Z,14.02
2023-04-08T18:43:50.041Z,16.05
2023-04-08T18:46:17.193Z,17.08
2023-04-08T18:48:43.737Z,15.95
2023-04-08T18:51:11.018Z,14.88
2023-04-08T18:53:38.350Z,15.20
2023-04-08T18:56:05.035Z,14.30
2023-04-08T18:58:32.019Z,15.30
2023-04-08T19:00:59.746Z,15.25
2023-04-08T19:03:27.628Z,15.23
2023-04-08T19:05:54.343Z,14.63
2023-04-08T19:08:20.797Z,15.13
2023-04-08T19:10:47.167Z,16.35
2023-04-08T19:13:13.746Z,15.45
2023-04-08T19:15:40.388Z,15.48
2023-04-08T19:18:06.899Z,15.20
2023-04-08T19:20:33.677Z,16.25
2023-04-08T19:23:00.199Z,16.15
2023-04-08T19:25:26.613Z,15.82
2023-04-08T19:27:53.116Z,15.20
2023-04-08T19:30:19.631Z,15.95
2023-04-08T19:32:46.910Z,15.40
2023-04-08T19:35:13.410Z,14.70
2023-04-08T19:37:40.577Z,16.90
2023-04-08T19:40:08.356Z,14.90
2023-04-08T19:42:34.896Z,15.65
2023-04-08T19:45:01.409Z,17.67
2023-04-08T19:47:28.010Z,16.27
2023-04-08T19:49:58.213Z,17.20
2023-04-08T19:52:25.068Z,15.60
2023-04-08T19:54:51.559Z,16.20
2023-04-08T19:57:19.430Z,15.07
2023-04-08T19:59:47.935Z,15.88
2023-04-08T20:02:14.619Z,14.65
2023-04-08T20:04:41.218Z,14.13
2023-04-08T20:07:07.747Z,14.20
2023-04-08T20:09:34.111Z,15.27
2023-04-08T20:12:04.627Z,14.45
2023-04-08T20:14:32.741Z,14.13
2023-04-08T20:16:59.619Z,14.88
2023-04-08T20:19:26.441Z,15.73
2023-04-08T20:21:53.258Z,15.15
2023-04-08T20:24:20.061Z,14.07
2023-04-08T20:26:46.557Z,12.43
2023-04-08T20:29:14.633Z,14.45
2023-04-08T20:31:41.149Z,14.98
2023-04-08T20:34:08.498Z,13.48
2023-04-08T20:36:35.081Z,17.45
2023-04-08T20:39:02.310Z,32.85
2023-04-08T20:41:29.439Z,26.30
2023-04-08T20:43:55.978Z,28.55
2023-04-08T20:46:22.516Z,17.98
2023-04-08T20:48:48.983Z,16.15
2023-04-08T20:51:17.364Z,16.65
2023-04-08T20:53:46.450Z,16.15
2023-04-08T20:56:13.012Z,17.17
2023-04-08T20:58:39.450Z,16.65
2023-04-08T21:01:05.955Z,17.65
2023-04-08T21:03:32.717Z,16.50
2023-04-08T21:05:59.217Z,17.95
2023-04-08T21:08:25.676Z,16.88
2023-04-08T21:10:54.041Z,18.58
2023-04-08T21:13:20.777Z,17.80
2023-04-08T21:15:47.205Z,17.20
2023-04-08T21:18:13.718Z,18.83
2023-04-08T21:20:41.051Z,19.10
2023-04-08T21:23:07.670Z,17.13
2023-04-08T21:25:34.474Z,17.88
2023-04-08T21:28:02.172Z,17.63
2023-04-08T21:30:28.672Z,18.30
2023-04-08T21:32:55.297Z,17.33
2023-04-08T21:35:23.420Z,17.58
2023-04-08T21:37:50.186Z,17.98
2023-04-08T21:40:17.135Z,17.60
2023-04-08T21:42:43.680Z,17.38
2023-04-08T21:45:10.759Z,18.83
2023-04-08T21:47:37.397Z,17.52
2023-04-08T21:50:04.392Z,17.85
2023-04-08T21:52:31.578Z,17.83
2023-04-08T21:54:58.045Z,17.33
2023-04-08T21:57:24.460Z,16.00
2023-04-08T21:59:50.986Z,17.48
2023-04-08T22:02:17.629Z,18.27
2023-04-08T22:04:44.664Z,18.58
2023-04-08T22:07:11.052Z,16.33
2023-04-08T22:09:37.499Z,18.27
2023-04-08T22:12:04.136Z,16.52
2023-04-08T22:14:30.828Z,18.15
2023-04-08T22:16:57.697Z,17.70
2023-04-08T22:19:24.138Z,19.45
2023-04-08T22:21:51.160Z,18.02
2023-04-08T22:24:18.855Z,16.08
2023-04-08T22:26:45.353Z,24.33
2023-04-08T22:29:11.881Z,24.85
2023-04-08T22:31:38.449Z,50.40
2023-04-08T22:34:05.510Z,22.15
2023-04-08T22:36:31.980Z,18.45
2023-04-08T22:38:58.425Z,18.60
2023-04-08T22:41:24.936Z,19.88
2023-04-08T22:43:51.367Z,17.90
2023-04-08T22:46:20.791Z,17.80
2023-04-08T22:48:47.621Z,19.20
2023-04-08T22:51:16.437Z,17.23
2023-04-08T22:53:50.897Z,17.02
2023-04-08T22:56:17.463Z,17.02
2023-04-08T22:58:44.044Z,17.00
2023-04-08T23:01:17.083Z,17.65
2023-04-08T23:03:44.317Z,18.70
2023-04-08T23:06:10.854Z,40.95
2023-04-08T23:08:38.628Z,37.97
2023-04-08T23:11:06.221Z,19.92
2023-04-08T23:13:36.188Z,18.83
2023-04-08T23:16:02.770Z,19.13
2023-04-08T23:18:29.271Z,17.83
2023-04-08T23:20:57.042Z,55.20
2023-04-08T23:23:24.515Z,74.93
2023-04-08T23:25:55.677Z,60.97
2023-04-08T23:28:22.663Z,89.00
2023-04-08T23:30:49.758Z,70.20
2023-04-08T23:33:16.960Z,30.75
2023-04-08T23:35:43.422Z,18.80
2023-04-08T23:38:10.204Z,21.35
2023-04-08T23:40:36.784Z,19.25
2023-04-08T23:43:03.197Z,17.40
2023-04-08T23:45:29.620Z,19.83
2023-04-08T23:47:56.241Z,19.73
2023-04-08T23:50:23.109Z,19.65
2023-04-08T23:52:49.663Z,20.00
2023-04-08T23:55:16.138Z,19.92
2023-04-08T23:57:43.688Z,20.95
